Prewitt, New Mexico
Current Conditions -  °F | °C
As of 12:56 AM on Friday 31 Oct 2014 (Local Time) from KGNT Reporting Station
Clear Clear  
Wind Chill: 50°   Ceiling: Unl
Heat Index: 50°   Visibility: 10mi
Dew Point: 19°   Wind: 9mph
Humidity: 30%   Direction: 180°S
Pressure: 30.37"   Gusts: NA
Location:  35.36°N, 108.04°W
Report Text: KGNT 310656Z AUTO 18008KT 10SM CLR 10/M07 A3037 RMK AO2
Loading
Personal Weather Stations






























Interactive Weather Map
Tropical Storm Tracking
New forecast layout! Learn more

10-Day Weather Forecast

Advertisements
Track Severe Weather on mobile